Time;durP1;ratioP1;P1;durP2;ratioP2;P2;SDS_P1;SDS_P2;PMS_P1;PMS_P2;Temp;Humidity;BMP_temperature;BMP_pressure;BME280_temperature;BME280_humidity;BME280_pressure;Samples;Min_cycle;Max_cycle;Signal;HPM_P1;HPM_P2
2022/08/17 00:00:49;;;;;;;31.80;29.10;;;19.70;99.90;;;;;;4589651;19;20369;-34
2022/08/17 00:02:20;;;;;;;29.35;26.88;;;19.70;99.90;;;;;;4589906;19;20489;-34
2022/08/17 00:03:51;;;;;;;29.85;27.13;;;19.70;99.90;;;;;;4589624;19;20007;-36
2022/08/17 00:05:22;;;;;;;29.88;27.40;;;19.70;99.90;;;;;;4589895;19;20014;-37
2022/08/17 00:06:54;;;;;;;30.27;27.58;;;19.70;99.90;;;;;;4590794;19;20543;-36
2022/08/17 00:08:49;;;;;;;30.33;27.63;;;19.70;99.90;;;;;;4590714;19;20010;-38
2022/08/17 00:10:20;;;;;;;30.40;27.73;;;19.60;99.90;;;;;;4590059;19;20010;-34
2022/08/17 00:11:51;;;;;;;29.73;27.23;;;19.60;99.90;;;;;;4590691;19;20018;-38
2022/08/17 00:13:29;;;;;;;29.10;26.50;;;19.60;99.90;;;;;;4590211;19;20504;-38
2022/08/17 00:15:00;;;;;;;30.05;27.40;;;19.60;99.90;;;;;;4588968;19;20014;-38
2022/08/17 00:16:36;;;;;;;30.80;28.20;;;19.60;99.90;;;;;;4589166;19;20029;-43
2022/08/17 00:18:07;;;;;;;28.55;26.15;;;19.60;99.90;;;;;;4589725;19;20517;-38
2022/08/17 00:19:39;;;;;;;31.08;28.38;;;19.60;99.90;;;;;;4590265;19;20015;-33
2022/08/17 00:21:10;;;;;;;26.92;24.60;;;19.60;99.90;;;;;;4590156;19;20018;-36
2022/08/17 00:22:41;;;;;;;27.83;25.27;;;19.60;99.90;;;;;;4590982;19;20006;-39
2022/08/17 00:24:13;;;;;;;28.88;26.35;;;19.60;99.90;;;;;;4590010;19;20027;-33
2022/08/17 00:25:44;;;;;;;;;;;19.60;99.90;;;;;;4588483;19;20119;-35
2022/08/17 00:27:16;;;;;;;27.10;24.70;;;19.60;99.90;;;;;;4589467;19;19926;-36
2022/08/17 00:28:47;;;;;;;27.73;25.23;;;19.50;99.90;;;;;;4591116;19;21100;-36
2022/08/17 00:30:18;;;;;;;28.58;26.08;;;19.60;99.90;;;;;;4590002;19;20472;-37
2022/08/17 00:31:49;;;;;;;27.77;25.30;;;19.60;99.90;;;;;;4588943;19;20014;-34
2022/08/17 00:33:22;;;;;;;27.77;25.45;;;19.50;99.90;;;;;;4589999;19;20014;-35
2022/08/17 00:34:53;;;;;;;27.05;24.65;;;19.60;99.90;;;;;;4589067;19;20018;-42
2022/08/17 00:36:24;;;;;;;27.50;25.20;;;19.50;99.90;;;;;;4589208;19;20017;-34
2022/08/17 00:37:56;;;;;;;29.30;26.70;;;19.50;99.90;;;;;;4590221;19;20031;-34
2022/08/17 00:39:27;;;;;;;30.75;27.95;;;19.50;99.90;;;;;;4590565;19;20020;-37
2022/08/17 00:41:01;;;;;;;33.03;30.02;;;19.50;99.90;;;;;;4587481;19;20013;-33
2022/08/17 00:42:32;;;;;;;33.05;29.98;;;19.50;99.90;;;;;;4586856;19;20010;-34
2022/08/17 00:44:04;;;;;;;30.98;28.20;;;19.50;99.90;;;;;;4589114;19;20014;-40
2022/08/17 00:45:35;;;;;;;33.17;30.17;;;19.50;99.90;;;;;;4590302;19;20006;-40
2022/08/17 00:47:06;;;;;;;32.10;29.20;;;19.50;99.90;;;;;;4589587;19;20010;-35
2022/08/17 00:48:37;;;;;;;32.35;29.50;;;19.50;99.90;;;;;;4588409;19;20503;-37
2022/08/17 00:50:10;;;;;;;36.00;32.55;;;19.50;99.90;;;;;;4589695;19;20103;-35
2022/08/17 00:51:46;;;;;;;33.38;30.38;;;19.50;99.90;;;;;;4589846;19;20464;-34
2022/08/17 00:53:17;;;;;;;32.10;29.20;;;19.50;99.90;;;;;;4589385;19;20484;-34
2022/08/17 00:54:51;;;;;;;31.90;29.15;;;19.50;99.90;;;;;;4589562;19;20037;-36
2022/08/17 00:56:27;;;;;;;30.38;27.67;;;19.50;99.90;;;;;;4589465;19;20015;-35
2022/08/17 00:58:00;;;;;;;31.15;28.33;;;19.50;99.90;;;;;;4589224;19;20002;-38
2022/08/17 00:59:36;;;;;;;30.85;28.10;;;19.50;99.90;;;;;;4589029;19;20330;-34
2022/08/17 01:01:07;;;;;;;30.08;27.27;;;19.50;99.90;;;;;;4588770;19;20071;-34
2022/08/17 01:02:41;;;;;;;31.08;28.27;;;19.50;99.90;;;;;;4588742;19;20023;-34
2022/08/17 01:04:12;;;;;;;30.50;27.75;;;19.50;99.90;;;;;;4588744;19;20400;-34
2022/08/17 01:05:44;;;;;;;30.23;27.45;;;19.40;99.90;;;;;;4588250;19;20010;-34
2022/08/17 01:07:15;;;;;;;30.13;27.42;;;19.40;99.90;;;;;;4588988;19;20011;-35
2022/08/17 01:08:46;;;;;;;;;;;19.40;99.90;;;;;;4589705;19;20333;-33
2022/08/17 01:10:21;;;;;;;28.58;25.98;;;19.40;99.90;;;;;;4589858;19;19922;-35
2022/08/17 01:11:52;;;;;;;32.40;29.52;;;19.40;99.90;;;;;;4588142;19;20021;-33
2022/08/17 01:13:29;;;;;;;30.50;27.75;;;19.40;99.90;;;;;;4589127;19;20461;-34
2022/08/17 01:15:00;;;;;;;30.77;27.98;;;19.40;99.90;;;;;;4589631;19;20015;-39
2022/08/17 01:16:31;;;;;;;30.25;27.45;;;19.40;99.90;;;;;;4589431;19;19998;-37
2022/08/17 01:18:04;;;;;;;34.53;31.23;;;19.40;99.90;;;;;;4588738;19;20017;-40
2022/08/17 01:19:38;;;;;;;31.88;29.00;;;19.40;99.90;;;;;;4589637;19;20014;-43
2022/08/17 01:21:13;;;;;;;30.85;28.13;;;19.40;99.90;;;;;;4588605;19;20081;-34
2022/08/17 01:22:44;;;;;;;31.80;28.77;;;19.40;99.90;;;;;;4588480;19;20013;-40
2022/08/17 01:24:15;;;;;;;32.38;29.38;;;19.40;99.90;;;;;;4588855;19;20010;-33
2022/08/17 01:25:53;;;;;;;32.47;29.48;;;19.40;99.90;;;;;;4588663;19;20006;-42
2022/08/17 01:27:25;;;;;;;34.58;31.40;;;19.40;99.90;;;;;;4588481;19;20011;-38
2022/08/17 01:28:56;;;;;;;;;;;19.40;99.90;;;;;;4590493;19;20022;-40
2022/08/17 01:30:27;;;;;;;31.15;28.35;;;19.40;99.90;;;;;;4588908;19;19918;-34
2022/08/17 01:32:00;;;;;;;29.85;27.10;;;19.40;99.90;;;;;;4589499;19;20014;-35
2022/08/17 01:33:32;;;;;;;29.90;27.08;;;19.40;99.90;;;;;;4588112;19;20448;-36
2022/08/17 01:35:04;;;;;;;31.05;28.08;;;19.40;99.90;;;;;;4588431;19;20021;-36
2022/08/17 01:36:37;;;;;;;31.67;28.58;;;19.40;99.90;;;;;;4587146;19;20388;-34
2022/08/17 01:38:08;;;;;;;31.38;28.48;;;19.40;99.90;;;;;;4588220;19;20525;-36
2022/08/17 01:39:49;;;;;;;32.97;29.92;;;19.40;99.90;;;;;;4587895;19;20432;-34
2022/08/17 01:41:20;;;;;;;31.88;28.98;;;19.40;99.90;;;;;;4588074;19;20015;-43
2022/08/17 01:42:55;;;;;;;30.23;27.33;;;19.40;99.90;;;;;;4587518;19;20027;-37
2022/08/17 01:44:26;;;;;;;28.85;26.25;;;19.40;99.90;;;;;;4592323;19;20515;-34
2022/08/17 01:45:59;;;;;;;30.65;27.63;;;19.40;99.90;;;;;;4592953;19;20073;-33
2022/08/17 01:47:30;;;;;;;28.52;25.83;;;19.40;99.90;;;;;;4591989;19;20015;-33
2022/08/17 01:49:05;;;;;;;29.85;26.88;;;19.40;99.90;;;;;;4592320;19;20066;-34
2022/08/17 01:50:39;;;;;;;28.58;25.88;;;19.30;99.90;;;;;;4591787;19;20492;-34
2022/08/17 01:52:10;;;;;;;29.10;26.45;;;19.40;99.90;;;;;;4592403;19;20326;-41
2022/08/17 01:53:45;;;;;;;29.08;26.42;;;19.40;99.90;;;;;;4592562;19;20495;-41
2022/08/17 01:55:17;;;;;;;29.77;26.98;;;19.30;99.90;;;;;;4591813;19;20334;-34
2022/08/17 01:56:49;;;;;;;26.38;24.02;;;19.40;99.90;;;;;;4591322;19;20014;-36
2022/08/17 01:58:20;;;;;;;26.92;24.38;;;19.30;99.90;;;;;;4592838;19;20007;-34
2022/08/17 01:59:51;;;;;;;28.40;25.70;;;19.30;99.90;;;;;;4592589;19;20006;-38
2022/08/17 02:01:25;;;;;;;27.88;25.40;;;19.30;99.90;;;;;;4593054;19;20007;-34
2022/08/17 02:02:56;;;;;;;27.05;24.65;;;19.30;99.90;;;;;;4593079;19;20010;-34
2022/08/17 02:04:28;;;;;;;25.85;23.55;;;19.30;99.90;;;;;;4593570;19;20002;-34
2022/08/17 02:05:59;;;;;;;25.98;23.75;;;19.30;99.90;;;;;;4592848;19;20468;-43
2022/08/17 02:07:30;;;;;;;26.35;24.02;;;19.30;99.90;;;;;;4591995;19;20027;-34
2022/08/17 02:09:02;;;;;;;26.52;24.17;;;19.30;99.90;;;;;;4592946;19;20010;-35
2022/08/17 02:10:33;;;;;;;;;;;19.30;99.90;;;;;;4592585;19;20464;-38
2022/08/17 02:12:04;;;;;;;25.60;23.33;;;19.30;99.90;;;;;;4592499;19;19922;-33
2022/08/17 02:13:36;;;;;;;26.17;23.77;;;19.20;99.90;;;;;;4592927;19;20010;-33
2022/08/17 02:15:07;;;;;;;;;;;19.20;99.90;;;;;;4594472;19;20019;-44
2022/08/17 02:16:39;;;;;;;27.67;25.08;;;19.20;99.90;;;;;;4592103;19;19919;-34
2022/08/17 02:18:10;;;;;;;27.15;24.60;;;19.20;99.90;;;;;;4590582;19;20010;-34
2022/08/17 02:19:42;;;;;;;27.15;24.65;;;19.20;99.90;;;;;;4591666;19;20070;-36
2022/08/17 02:21:13;;;;;;;28.60;25.98;;;19.20;99.90;;;;;;4592307;19;20018;-35
2022/08/17 02:22:45;;;;;;;28.25;25.85;;;19.20;99.90;;;;;;4592670;19;20021;-34
2022/08/17 02:24:24;;;;;;;26.17;23.92;;;19.20;99.90;;;;;;4591617;19;20010;-34
2022/08/17 02:25:57;;;;;;;26.50;24.20;;;19.20;99.90;;;;;;4592005;19;20003;-34
2022/08/17 02:27:28;;;;;;;27.30;24.88;;;19.20;99.90;;;;;;4591887;19;20070;-34
2022/08/17 02:28:59;;;;;;;27.17;24.83;;;19.20;99.90;;;;;;4593161;19;20078;-40
2022/08/17 02:30:30;;;;;;;28.25;25.65;;;19.20;99.90;;;;;;4591201;19;20037;-34
2022/08/17 02:32:01;;;;;;;30.33;27.65;;;19.10;99.90;;;;;;4592449;19;20027;-38
2022/08/17 02:33:32;;;;;;;28.70;26.10;;;19.10;99.90;;;;;;4591290;19;20345;-41
2022/08/17 02:35:04;;;;;;;31.63;28.65;;;19.10;99.90;;;;;;4591149;19;20070;-34
2022/08/17 02:36:35;;;;;;;30.40;27.48;;;19.10;99.90;;;;;;4591299;19;20498;-33
2022/08/17 02:38:06;;;;;;;32.95;29.67;;;19.10;99.90;;;;;;4592994;19;20018;-34
2022/08/17 02:39:37;;;;;;;32.08;28.98;;;19.10;99.90;;;;;;4592364;19;20031;-33
2022/08/17 02:41:09;;;;;;;34.03;30.73;;;19.10;99.90;;;;;;4592310;19;20022;-34
2022/08/17 02:42:41;;;;;;;39.15;35.42;;;19.10;99.90;;;;;;4592607;19;20023;-43
2022/08/17 02:44:12;;;;;;;36.00;32.60;;;19.10;99.90;;;;;;4591597;19;20058;-38
2022/08/17 02:45:43;;;;;;;33.17;30.20;;;19.10;99.90;;;;;;4591506;19;20366;-33
2022/08/17 02:47:14;;;;;;;29.77;27.13;;;19.10;99.90;;;;;;4592566;19;20028;-34
2022/08/17 02:48:46;;;;;;;32.38;29.38;;;19.10;99.90;;;;;;4592685;19;20015;-34
2022/08/17 02:50:19;;;;;;;30.70;27.92;;;19.10;99.90;;;;;;4592690;19;20013;-33
2022/08/17 02:51:50;;;;;;;29.42;26.73;;;19.10;99.90;;;;;;4591688;19;20375;-38
2022/08/17 02:53:21;;;;;;;30.20;27.50;;;19.10;99.90;;;;;;4591986;19;20109;-34
2022/08/17 02:54:52;;;;;;;29.25;26.65;;;19.10;99.90;;;;;;4592067;19;20480;-34
2022/08/17 02:56:23;;;;;;;30.50;27.80;;;19.10;99.90;;;;;;4591274;19;20006;-36
2022/08/17 02:57:54;;;;;;;31.42;28.40;;;19.10;99.90;;;;;;4590933;19;20100;-42
2022/08/17 02:59:26;;;;;;;29.45;26.60;;;19.10;99.90;;;;;;4591409;19;20359;-44
2022/08/17 03:00:57;;;;;;;28.70;26.10;;;19.10;99.90;;;;;;4592259;19;20472;-45
2022/08/17 03:02:28;;;;;;;29.30;26.60;;;19.10;99.90;;;;;;4590796;19;20011;-38
2022/08/17 03:03:59;;;;;;;28.35;25.35;;;19.10;99.90;;;;;;4591396;19;20011;-41
2022/08/17 03:05:33;;;;;;;28.95;24.67;;;19.20;99.90;;;;;;4589420;19;20074;-42
2022/08/17 03:07:04;;;;;;;23.80;21.10;;;19.30;99.90;;;;;;4590734;19;20049;-34
2022/08/17 03:08:36;;;;;;;25.40;22.73;;;19.40;99.90;;;;;;4590433;19;20032;-34
2022/08/17 03:10:07;;;;;;;23.85;21.30;;;19.50;99.90;;;;;;4590256;19;20370;-43
2022/08/17 03:11:39;;;;;;;25.77;22.55;;;19.60;99.90;;;;;;4591619;19;20035;-40
2022/08/17 03:13:13;;;;;;;27.13;22.30;;;19.70;99.90;;;;;;4591928;19;20009;-34
2022/08/17 03:14:44;;;;;;;25.75;23.05;;;19.80;99.90;;;;;;4591476;19;20023;-35
2022/08/17 03:16:15;;;;;;;25.10;22.33;;;19.90;99.90;;;;;;4591204;19;20015;-33
2022/08/17 03:17:47;;;;;;;25.50;22.75;;;20.00;99.90;;;;;;4591565;19;20026;-36
2022/08/17 03:19:18;;;;;;;24.88;22.35;;;20.00;99.90;;;;;;4590021;19;20003;-38
2022/08/17 03:20:49;;;;;;;25.30;22.70;;;20.10;99.90;;;;;;4590375;19;20034;-36
2022/08/17 03:22:20;;;;;;;28.38;23.50;;;20.20;99.90;;;;;;4590542;19;20011;-37
2022/08/17 03:23:52;;;;;;;27.05;24.33;;;20.20;99.90;;;;;;4590361;19;20023;-40
2022/08/17 03:25:28;;;;;;;25.73;22.48;;;20.30;99.90;;;;;;4590732;19;20333;-37
2022/08/17 03:26:59;;;;;;;25.02;22.25;;;20.30;99.90;;;;;;4590981;19;20047;-38
2022/08/17 03:28:30;;;;;;;25.80;22.92;;;20.30;99.90;;;;;;4590894;19;20014;-38
2022/08/17 03:30:03;;;;;;;24.48;21.85;;;20.30;99.90;;;;;;4590294;19;20015;-40
2022/08/17 03:31:34;;;;;;;27.88;22.75;;;20.40;99.90;;;;;;4590733;19;20006;-37
2022/08/17 03:33:08;;;;;;;24.83;22.15;;;20.40;99.90;;;;;;4590108;19;20010;-34
2022/08/17 03:34:40;;;;;;;24.25;20.83;;;20.40;99.90;;;;;;4590620;19;20351;-42
2022/08/17 03:36:11;;;;;;;23.70;21.13;;;20.50;99.90;;;;;;4591268;19;20023;-44
2022/08/17 03:37:42;;;;;;;24.25;20.85;;;20.40;99.90;;;;;;4589985;19;20499;-35
2022/08/17 03:39:13;;;;;;;23.48;20.90;;;20.40;99.90;;;;;;4589676;19;20488;-38
2022/08/17 03:40:45;;;;;;;26.15;23.42;;;20.40;99.90;;;;;;4590220;19;20002;-45
2022/08/17 03:42:19;;;;;;;26.63;22.98;;;20.40;99.90;;;;;;4590457;19;20082;-37
2022/08/17 03:43:50;;;;;;;26.98;24.02;;;20.40;99.90;;;;;;4590292;19;20010;-37
2022/08/17 03:56:41;;;;;;;28.20;25.17;;;20.40;99.90;;;;;;4590486;19;20011;-38
2022/08/17 03:58:12;;;;;;;28.80;25.13;;;20.60;99.90;;;;;;4590822;19;20022;-39
2022/08/17 03:59:43;;;;;;;31.38;25.88;;;20.60;99.90;;;;;;4591102;19;20460;-33
2022/08/17 04:01:14;;;;;;;28.10;24.35;;;20.60;99.90;;;;;;4591353;19;20074;-38
2022/08/17 04:02:45;;;;;;;28.65;25.00;;;20.60;99.90;;;;;;4590570;19;20026;-35
2022/08/17 04:04:17;;;;;;;27.10;24.27;;;20.60;99.90;;;;;;4589128;19;20021;-34
2022/08/17 04:05:48;;;;;;;;;;;20.60;99.90;;;;;;4589908;19;20337;-40
2022/08/17 04:07:20;;;;;;;26.27;23.25;;;20.60;99.90;;;;;;4590388;19;19919;-35
2022/08/17 04:08:51;;;;;;;29.10;24.88;;;20.60;99.90;;;;;;4589221;19;20375;-41
2022/08/17 04:10:22;;;;;;;26.73;23.98;;;20.60;99.90;;;;;;4590426;19;20535;-37
2022/08/17 04:11:53;;;;;;;28.40;25.15;;;20.60;99.90;;;;;;4590765;19;20014;-38
2022/08/17 04:13:24;;;;;;;29.90;25.83;;;20.60;99.90;;;;;;4589142;19;20034;-43
2022/08/17 04:14:55;;;;;;;29.90;24.63;;;20.60;99.90;;;;;;4589327;19;20007;-38
2022/08/17 04:16:27;;;;;;;29.80;26.52;;;20.60;99.90;;;;;;4590021;19;20016;-36
2022/08/17 04:17:58;;;;;;;27.75;24.75;;;20.60;99.90;;;;;;4590209;19;20015;-37
2022/08/17 04:19:29;;;;;;;29.42;25.13;;;20.60;99.90;;;;;;4589035;19;20014;-36
2022/08/17 04:21:00;;;;;;;27.67;24.70;;;20.50;99.90;;;;;;4589125;19;20011;-34
2022/08/17 04:22:31;;;;;;;24.65;22.08;;;20.50;99.90;;;;;;4589256;19;20101;-36
2022/08/17 04:24:03;;;;;;;21.92;19.77;;;20.50;99.90;;;;;;4590170;19;20018;-40
2022/08/17 04:25:37;;;;;;;27.33;20.00;;;20.50;99.90;;;;;;4590097;19;20023;-40
2022/08/17 04:27:08;;;;;;;22.67;20.58;;;20.40;99.90;;;;;;4589115;19;20027;-37
2022/08/17 04:28:40;;;;;;;22.80;20.70;;;20.40;99.90;;;;;;4587610;19;20046;-40
2022/08/17 04:30:12;;;;;;;24.27;22.02;;;20.40;99.90;;;;;;4588619;19;20011;-37
2022/08/17 04:31:43;;;;;;;22.83;20.65;;;20.40;99.90;;;;;;4590017;19;20022;-38
2022/08/17 04:33:19;;;;;;;22.80;20.58;;;20.40;99.90;;;;;;4590289;19;20017;-42
2022/08/17 04:34:50;;;;;;;21.25;19.35;;;20.40;99.90;;;;;;4589022;19;20420;-34
2022/08/17 04:36:21;;;;;;;;;;;20.30;99.90;;;;;;4590392;19;20006;-42
2022/08/17 04:37:52;;;;;;;21.27;19.23;;;20.30;99.90;;;;;;4588885;19;19918;-38
2022/08/17 04:39:25;;;;;;;19.35;17.63;;;20.40;99.90;;;;;;4591259;19;20015;-36
2022/08/17 04:43:00;;;;;;;18.40;16.70;;;20.50;99.90;;;;;;4591128;19;20010;-39
2022/08/17 04:44:31;;;;;;;16.77;15.27;;;20.50;99.90;;;;;;4592013;19;20018;-34
2022/08/17 04:46:04;;;;;;;20.70;18.83;;;20.60;99.90;;;;;;4589391;19;20056;-44
2022/08/17 04:47:35;;;;;;;20.88;18.98;;;20.60;99.90;;;;;;4589385;19;20378;-34
2022/08/17 04:49:08;;;;;;;20.10;18.30;;;20.50;99.90;;;;;;4588788;19;20014;-40
2022/08/17 04:50:44;;;;;;;20.92;19.02;;;20.50;99.90;;;;;;4588572;19;20014;-37
2022/08/17 04:52:16;;;;;;;20.25;18.35;;;20.40;99.90;;;;;;4588459;19;20073;-38
2022/08/17 04:53:49;;;;;;;21.73;19.73;;;20.40;99.90;;;;;;4588400;19;20337;-36
2022/08/17 04:55:20;;;;;;;21.48;19.48;;;20.40;99.90;;;;;;4588916;19;20083;-34
2022/08/17 04:56:52;;;;;;;25.92;23.33;;;20.40;99.90;;;;;;4586384;19;20039;-37
2022/08/17 04:58:23;;;;;;;25.10;22.60;;;20.40;99.90;;;;;;4588170;19;20021;-40
2022/08/17 04:59:54;;;;;;;21.85;19.75;;;20.40;99.90;;;;;;4589029;19;20013;-34
2022/08/17 05:01:26;;;;;;;23.38;21.08;;;20.30;99.90;;;;;;4588401;19;20046;-43
2022/08/17 05:02:57;;;;;;;25.27;22.83;;;20.30;99.90;;;;;;4587854;19;20070;-42
2022/08/17 05:04:29;;;;;;;22.95;20.75;;;20.30;99.90;;;;;;4589533;19;20509;-39
2022/08/17 05:06:00;;;;;;;25.45;22.85;;;20.30;99.90;;;;;;4590293;19;20014;-35
2022/08/17 05:07:31;;;;;;;25.90;23.40;;;20.30;99.90;;;;;;4589162;19;20047;-36
2022/08/17 05:09:02;;;;;;;25.95;23.42;;;20.30;99.90;;;;;;4589438;19;20505;-36
2022/08/17 05:10:35;;;;;;;25.92;23.20;;;20.40;99.90;;;;;;4589759;19;20014;-38
2022/08/17 05:12:06;;;;;;;26.13;23.45;;;20.40;99.90;;;;;;4589941;19;20496;-42
2022/08/17 05:13:38;;;;;;;23.92;21.55;;;20.50;99.90;;;;;;4589421;19;20010;-38
2022/08/17 05:15:14;;;;;;;25.63;22.92;;;20.50;99.90;;;;;;4588154;19;20074;-39
2022/08/17 05:16:48;;;;;;;24.10;21.67;;;20.60;99.90;;;;;;4588679;19;20003;-37
2022/08/17 05:18:19;;;;;;;25.85;22.90;;;20.60;99.90;;;;;;4589813;19;20013;-36
2022/08/17 05:19:50;;;;;;;23.65;21.25;;;20.60;99.90;;;;;;4594909;19;20018;-40
2022/08/17 05:21:21;;;;;;;25.25;22.75;;;20.70;99.90;;;;;;4592161;19;20501;-36
2022/08/17 05:22:54;;;;;;;25.13;22.60;;;20.70;99.90;;;;;;4593044;19;20007;-38
2022/08/17 05:24:25;;;;;;;27.85;25.05;;;20.70;99.90;;;;;;4590720;19;20015;-42
2022/08/17 05:25:57;;;;;;;27.02;24.33;;;20.80;99.90;;;;;;4593344;19;20078;-37
2022/08/17 05:27:28;;;;;;;26.92;24.33;;;20.80;99.90;;;;;;4594391;19;20426;-39
2022/08/17 05:28:59;;;;;;;25.95;23.35;;;20.80;99.90;;;;;;4594301;19;20028;-39
2022/08/17 05:30:30;;;;;;;24.70;22.38;;;20.80;99.90;;;;;;4594016;19;20476;-40
2022/08/17 05:32:08;;;;;;;;;;;20.80;99.90;;;;;;4592289;19;20480;-42
2022/08/17 05:33:40;;;;;;;26.20;23.50;;;20.80;99.90;;;;;;4594708;19;19914;-44
2022/08/17 05:35:11;;;;;;;26.52;23.77;;;20.80;99.90;;;;;;4593809;19;20029;-38
2022/08/17 05:36:42;;;;;;;25.98;23.40;;;20.80;99.90;;;;;;4593517;19;20011;-34
2022/08/17 05:38:18;;;;;;;26.05;23.45;;;20.80;99.90;;;;;;4593489;19;20086;-41
2022/08/17 05:39:49;;;;;;;28.58;25.50;;;20.80;99.90;;;;;;4592617;19;20018;-34
2022/08/17 05:41:20;;;;;;;25.88;23.27;;;20.80;99.90;;;;;;4593942;19;20031;-39
2022/08/17 05:42:52;;;;;;;27.25;24.48;;;20.80;99.90;;;;;;4593487;19;20469;-36
2022/08/17 05:44:23;;;;;;;28.30;25.50;;;20.80;99.90;;;;;;4589948;19;20090;-34
2022/08/17 05:46:22;;;;;;;27.98;25.08;;;20.80;99.90;;;;;;4593534;19;20014;-35
2022/08/17 05:47:53;;;;;;;28.63;25.70;;;20.80;99.90;;;;;;4592091;19;20085;-34
2022/08/17 05:49:26;;;;;;;27.55;24.75;;;20.80;99.90;;;;;;4591505;19;20010;-38
2022/08/17 05:51:26;;;;;;;31.00;27.90;;;20.80;99.90;;;;;;4593843;19;20010;-42
2022/08/17 05:53:13;;;;;;;29.20;26.33;;;20.80;99.90;;;;;;4591558;19;20532;-41
2022/08/17 05:55:09;;;;;;;28.98;26.17;;;20.80;99.90;;;;;;4589611;19;20051;-37
2022/08/17 05:56:42;;;;;;;30.48;27.35;;;20.80;99.90;;;;;;4588986;19;20028;-37
2022/08/17 05:58:45;;;;;;;29.23;26.15;;;20.80;99.90;;;;;;4591459;19;20652;-39
2022/08/17 06:00:24;;;;;;;47.08;42.45;;;20.70;99.90;;;;;;4590366;19;20018;-40
2022/08/17 06:02:07;;;;;;;49.75;45.05;;;20.10;99.90;;;;;;4589782;19;20511;-39
2022/08/17 06:03:50;;;;;;;56.75;51.40;;;19.90;99.90;;;;;;4591478;19;20022;-34
2022/08/17 06:05:33;;;;;;;52.63;47.67;;;19.80;99.90;;;;;;4590158;19;20010;-36
2022/08/17 06:07:12;;;;;;;52.03;47.15;;;19.80;99.90;;;;;;4591421;19;20034;-34
2022/08/17 06:08:52;;;;;;;50.58;45.97;;;19.80;99.90;;;;;;4590810;19;20090;-35
2022/08/17 06:10:35;;;;;;;49.92;45.33;;;19.90;99.90;;;;;;4590258;19;20074;-39
2022/08/17 06:12:35;;;;;;;49.50;44.92;;;19.90;99.90;;;;;;4590723;19;20014;-38
2022/08/17 06:14:21;;;;;;;53.17;48.17;;;20.00;99.90;;;;;;4590717;19;20433;-43
2022/08/17 06:15:55;;;;;;;52.72;47.75;;;20.00;99.90;;;;;;4589985;19;20022;-39
2022/08/17 06:17:26;;;;;;;51.03;46.13;;;20.10;99.90;;;;;;4588808;19;20010;-40
2022/08/17 06:19:02;;;;;;;52.30;47.50;;;20.10;99.90;;;;;;4587811;19;20018;-33
2022/08/17 06:20:46;;;;;;;50.08;45.60;;;20.10;99.90;;;;;;4589290;19;20015;-36
2022/08/17 06:22:18;;;;;;;52.75;47.70;;;20.10;99.90;;;;;;4591115;19;20045;-35
2022/08/17 06:24:01;;;;;;;51.63;46.85;;;20.20;99.90;;;;;;4590215;19;20041;-34
2022/08/17 06:25:36;;;;;;;50.40;45.70;;;20.20;99.90;;;;;;4589908;19;20014;-38
2022/08/17 06:27:39;;;;;;;50.78;46.03;;;20.30;99.90;;;;;;4589180;19;20010;-42
2022/08/17 06:29:47;;;;;;;50.47;45.78;;;20.30;99.90;;;;;;4589375;19;20404;-36
2022/08/17 06:31:26;;;;;;;51.95;47.05;;;20.30;99.90;;;;;;4591119;19;20477;-35
2022/08/17 06:33:01;;;;;;;53.80;48.88;;;20.30;99.90;;;;;;4589146;19;20018;-35
2022/08/17 06:34:32;;;;;;;54.30;49.60;;;20.30;99.90;;;;;;4590426;19;20010;-36
2022/08/17 06:36:13;;;;;;;52.17;47.20;;;20.30;99.90;;;;;;4589429;19;20014;-34
2022/08/17 06:38:08;;;;;;;50.25;45.75;;;20.40;99.90;;;;;;4587375;19;20041;-33
2022/08/17 06:40:05;;;;;;;51.05;46.42;;;20.40;99.90;;;;;;4589680;19;20015;-38
2022/08/17 06:41:45;;;;;;;50.90;46.15;;;20.50;99.90;;;;;;4589779;19;20107;-37
2022/08/17 06:43:57;;;;;;;53.65;48.83;;;20.50;99.90;;;;;;4589436;19;20011;-41
2022/08/17 06:45:30;;;;;;;;;;;20.50;99.90;;;;;;4590824;19;20022;-36
2022/08/17 06:47:07;;;;;;;52.67;47.70;;;20.50;99.90;;;;;;4589849;19;19921;-37
2022/08/17 06:48:47;;;;;;;48.10;43.55;;;20.50;99.90;;;;;;4590344;19;20041;-35
2022/08/17 06:50:19;;;;;;;50.53;45.83;;;20.50;99.90;;;;;;4590372;19;20021;-34
2022/08/17 06:52:07;;;;;;;49.97;45.47;;;20.60;99.90;;;;;;4590462;19;20080;-37
2022/08/17 06:53:49;;;;;;;52.05;47.35;;;20.60;99.90;;;;;;4590921;19;20496;-36
2022/08/17 06:55:55;;;;;;;54.63;49.70;;;20.60;99.90;;;;;;4592217;19;20031;-40
2022/08/17 06:57:29;;;;;;;53.03;48.22;;;20.60;99.90;;;;;;4588333;19;20074;-37
2022/08/17 06:59:00;;;;;;;50.33;45.83;;;20.60;99.90;;;;;;4589572;19;20342;-39
2022/08/17 07:00:35;;;;;;;54.35;49.25;;;20.70;99.90;;;;;;4590285;19;20081;-35
2022/08/17 07:02:06;;;;;;;49.20;44.72;;;20.70;99.90;;;;;;4589486;19;20010;-39
2022/08/17 07:03:46;;;;;;;;;;;20.80;99.90;;;;;;4590353;19;20480;-35
2022/08/17 07:05:18;;;;;;;53.13;48.22;;;20.80;99.90;;;;;;4589683;19;19914;-43
2022/08/17 07:06:57;;;;;;;50.22;45.65;;;20.80;99.90;;;;;;4589664;19;20531;-38
2022/08/17 07:08:38;;;;;;;50.35;45.72;;;20.80;99.90;;;;;;4589478;19;20003;-40
2022/08/17 07:10:10;;;;;;;52.50;47.70;;;20.90;99.90;;;;;;4588942;19;20011;-34
2022/08/17 07:11:46;;;;;;;49.60;45.13;;;20.90;99.90;;;;;;4588291;19;20367;-37
2022/08/17 07:13:36;;;;;;;45.88;41.85;;;20.90;99.90;;;;;;4588925;19;20007;-43
2022/08/17 07:15:15;;;;;;;49.03;44.70;;;21.00;99.90;;;;;;4589924;19;20009;-39
2022/08/17 07:16:51;;;;;;;48.03;43.70;;;21.00;99.90;;;;;;4588505;19;20025;-38
2022/08/17 07:18:24;;;;;;;43.30;38.92;;;21.00;99.90;;;;;;4588473;19;20082;-37
2022/08/17 07:20:01;;;;;;;46.80;42.63;;;21.10;99.90;;;;;;4589097;19;20015;-35
2022/08/17 07:21:53;;;;;;;50.78;46.17;;;21.10;99.90;;;;;;4589619;19;20070;-40
2022/08/17 07:23:33;;;;;;;46.78;42.30;;;21.00;99.90;;;;;;4589721;19;20007;-40
2022/08/17 07:25:06;;;;;;;48.70;44.15;;;21.10;99.90;;;;;;4588959;19;20014;-38
2022/08/17 07:26:37;;;;;;;45.83;41.58;;;21.10;99.90;;;;;;4588672;19;20015;-40
2022/08/17 07:28:08;;;;;;;47.55;43.25;;;21.10;99.90;;;;;;4589267;19;20525;-40
2022/08/17 07:30:02;;;;;;;45.88;41.83;;;21.20;99.90;;;;;;4589038;19;19998;-33
2022/08/17 07:31:33;;;;;;;46.40;42.08;;;21.20;99.90;;;;;;4588979;19;20611;-35
2022/08/17 07:33:08;;;;;;;43.72;39.83;;;21.20;99.90;;;;;;4588878;19;20018;-34
2022/08/17 07:35:06;;;;;;;43.22;39.33;;;21.30;99.90;;;;;;4588393;19;20015;-36
2022/08/17 07:36:37;;;;;;;45.10;41.08;;;21.20;99.90;;;;;;4588851;19;20018;-37
2022/08/17 07:38:15;;;;;;;42.45;38.45;;;21.20;99.90;;;;;;4589304;19;20002;-38
2022/08/17 07:39:46;;;;;;;41.17;37.28;;;21.30;99.90;;;;;;4588873;19;20011;-35
2022/08/17 07:41:17;;;;;;;42.85;39.08;;;21.30;99.90;;;;;;4586701;19;20109;-34
2022/08/17 07:43:06;;;;;;;43.05;39.25;;;21.30;99.90;;;;;;4588829;19;20015;-40
2022/08/17 07:44:49;;;;;;;40.20;36.42;;;21.30;99.90;;;;;;4588792;19;20100;-35
2022/08/17 07:48:21;;;;;;;38.70;35.20;;;21.40;99.90;;;;;;4589056;19;20017;-44
2022/08/17 07:49:52;;;;;;;37.50;34.20;;;21.40;99.90;;;;;;4588677;19;20010;-35
2022/08/17 07:51:35;;;;;;;36.58;33.40;;;21.40;99.90;;;;;;4588811;19;20010;-36
2022/08/17 07:53:23;;;;;;;38.35;34.95;;;21.40;99.90;;;;;;4589334;19;19995;-35
2022/08/17 07:54:54;;;;;;;40.08;36.55;;;21.40;99.90;;;;;;4588935;19;20014;-40
2022/08/17 07:56:45;;;;;;;37.80;34.28;;;21.50;99.90;;;;;;4588141;19;20010;-38
2022/08/17 07:58:19;;;;;;;36.85;33.47;;;21.50;99.90;;;;;;4589002;19;20010;-42
2022/08/17 07:59:58;;;;;;;37.55;34.20;;;21.50;99.90;;;;;;4588171;19;20011;-39
2022/08/17 08:01:29;;;;;;;34.78;31.58;;;21.50;99.90;;;;;;4588829;19;20226;-37
2022/08/17 08:03:25;;;;;;;34.65;31.55;;;21.60;99.90;;;;;;4588457;19;20349;-40
2022/08/17 08:05:11;;;;;;;32.45;29.65;;;21.50;99.90;;;;;;4590512;19;20003;-39
2022/08/17 08:06:53;;;;;;;32.20;29.40;;;21.60;99.90;;;;;;4590311;19;20480;-43
2022/08/17 08:08:42;;;;;;;32.08;29.08;;;21.60;99.90;;;;;;4589704;19;20472;-36
2022/08/17 08:10:14;;;;;;;28.90;26.38;;;21.70;99.90;;;;;;4589274;19;20399;-35
2022/08/17 08:11:45;;;;;;;30.25;27.60;;;21.70;99.90;;;;;;4589986;19;20018;-36
2022/08/17 08:13:24;;;;;;;30.40;27.80;;;21.70;99.90;;;;;;4589799;19;20021;-44
2022/08/17 08:14:59;;;;;;;29.25;26.65;;;21.70;99.90;;;;;;4590038;19;20475;-37
2022/08/17 08:16:30;;;;;;;30.30;27.65;;;21.70;99.90;;;;;;4590242;19;20013;-37
2022/08/17 08:18:03;;;;;;;31.13;28.30;;;21.80;99.90;;;;;;4590084;19;20052;-40